Time;durP1;ratioP1;P1;durP2;ratioP2;P2;SDS_P1;SDS_P2;PMS_P1;PMS_P2;Temp;Humidity;BMP_temperature;BMP_pressure;BME280_temperature;BME280_humidity;BME280_pressure;Samples;Min_cycle;Max_cycle;Signal;HPM_P1;HPM_P2
2023/05/17 00:01:05;;;;;;;4.20;2.03;;;;;;;6.16;100.00;101096.81;4990666;28;20065;-82
2023/05/17 00:03:32;;;;;;;3.60;2.30;;;;;;;6.14;100.00;101099.44;5006864;28;20073;-80
2023/05/17 00:05:58;;;;;;;4.60;2.27;;;;;;;6.00;100.00;101100.22;5010453;28;20491;-80
2023/05/17 00:08:25;;;;;;;3.50;2.07;;;;;;;5.96;100.00;101094.06;4993455;28;20065;-81
2023/05/17 00:10:52;;;;;;;2.77;1.77;;;;;;;5.92;100.00;101092.31;4977537;28;20049;-79
2023/05/17 00:13:18;;;;;;;3.83;1.80;;;;;;;5.91;100.00;101101.06;4989434;28;20160;-80
2023/05/17 00:15:45;;;;;;;6.07;2.00;;;;;;;5.89;100.00;101093.16;4993298;28;20054;-81
2023/05/17 00:18:12;;;;;;;3.67;1.90;;;;;;;5.73;100.00;101106.16;4987899;28;20125;-80
2023/05/17 00:20:39;;;;;;;3.33;1.80;;;;;;;5.56;100.00;101103.44;4988313;28;20053;-80
2023/05/17 00:23:05;;;;;;;5.30;1.73;;;;;;;5.65;100.00;101106.13;5009755;28;20042;-81
2023/05/17 00:25:32;;;;;;;7.13;1.93;;;;;;;5.62;100.00;101103.44;5005589;28;20050;-79
2023/05/17 00:27:59;;;;;;;4.37;1.70;;;;;;;5.36;100.00;101096.28;5012934;28;20483;-81
2023/05/17 00:30:26;;;;;;;4.20;1.60;;;;;;;5.29;100.00;101096.22;5012438;28;20407;-78
2023/05/17 00:32:53;;;;;;;2.93;1.70;;;;;;;5.32;100.00;101093.63;5009396;28;20046;-81
2023/05/17 00:35:19;;;;;;;4.07;1.80;;;;;;;5.36;100.00;101093.66;4984523;28;20045;-82
2023/05/17 00:37:46;;;;;;;3.90;1.90;;;;;;;5.26;100.00;101098.81;5020087;28;20126;-79
2023/05/17 00:40:14;;;;;;;3.13;1.67;;;;;;;5.19;100.00;101083.91;4992819;28;20038;-80
2023/05/17 00:42:41;;;;;;;2.80;1.73;;;;;;;5.21;100.00;101084.78;4976080;28;20048;-80
2023/05/17 00:45:08;;;;;;;3.43;1.80;;;;;;;5.27;100.00;101090.09;4996479;28;20092;-81
2023/05/17 00:47:35;;;;;;;5.10;2.10;;;;;;;5.17;100.00;101081.28;5016925;28;20080;-79
2023/05/17 00:50:02;;;;;;;4.63;2.70;;;;;;;5.20;100.00;101088.28;4984967;28;20043;-81
2023/05/17 00:52:29;;;;;;;5.83;2.10;;;;;;;5.29;100.00;101088.34;5001344;28;20455;-78
2023/05/17 00:54:57;;;;;;;3.60;1.73;;;;;;;5.14;100.00;101077.78;5004153;28;20146;-82
2023/05/17 00:57:24;;;;;;;3.60;1.90;;;;;;;5.04;100.00;101080.31;4992025;28;20484;-80
2023/05/17 00:59:51;;;;;;;6.43;2.20;;;;;;;5.12;100.00;101084.72;5025858;28;20129;-78
2023/05/17 01:02:18;;;;;;;2.83;1.90;;;;;;;5.11;100.00;101089.09;5005136;28;20092;-82
2023/05/17 01:04:45;;;;;;;4.13;2.23;;;;;;;5.19;100.00;101086.53;4979487;28;20046;-80
2023/05/17 01:07:11;;;;;;;3.47;2.00;;;;;;;5.07;100.00;101074.22;4976737;28;20043;-80
2023/05/17 01:09:38;;;;;;;5.27;2.10;;;;;;;5.10;100.00;101089.94;4985639;28;20073;-80
2023/05/17 01:12:18;;;;;;;3.00;1.90;;;;;;;5.10;100.00;101082.09;5009120;28;20081;-77
2023/05/17 01:14:48;;;;;;;3.80;2.17;;;;;;;5.11;100.00;101085.59;5019144;28;20045;-82
2023/05/17 01:17:26;;;;;;;5.17;2.20;;;;;;;5.06;100.00;101085.56;5006630;28;20628;-82
2023/05/17 01:20:06;;;;;;;3.83;1.90;;;;;;;5.09;100.00;101080.34;5011343;28;20062;-81
2023/05/17 01:23:22;;;;;;;4.40;2.67;;;;;;;5.15;100.00;101083.03;4995860;28;20048;-80
2023/05/17 01:26:27;;;;;;;6.80;2.70;;;;;;;5.14;100.00;101090.88;5011434;28;20154;-79
2023/05/17 01:28:53;;;;;;;4.70;2.40;;;;;;;5.17;100.00;101091.75;5030514;28;20073;-79
2023/05/17 01:31:21;;;;;;;3.63;2.37;;;;;;;5.13;100.00;101095.25;4988680;28;20073;-81
2023/05/17 01:33:48;;;;;;;9.70;3.70;;;;;;;5.23;100.00;101098.81;4980279;28;20600;-78
2023/05/17 01:36:15;;;;;;;3.23;2.00;;;;;;;5.08;100.00;101094.31;5029969;28;20040;-80
2023/05/17 01:38:41;;;;;;;5.30;2.13;;;;;;;5.06;100.00;101094.31;5001077;28;20647;-80
2023/05/17 01:41:20;;;;;;;2.73;1.90;;;;;;;5.09;100.00;101089.06;5001129;28;20046;-79
2023/05/17 01:43:50;;;;;;;7.73;2.63;;;;;;;5.01;100.00;101101.22;5010109;28;20045;-79
2023/05/17 01:46:26;;;;;;;3.53;1.90;;;;;;;4.95;100.00;101102.91;5007521;28;20077;-79
2023/05/17 01:49:33;;;;;;;4.53;2.57;;;;;;;4.96;100.00;101096.78;5000422;28;20069;-79
2023/05/17 01:52:12;;;;;;;5.57;2.10;;;;;;;4.90;100.00;101104.63;4980402;28;20052;-77
2023/05/17 01:55:03;;;;;;;4.93;2.83;;;;;;;4.96;100.00;101102.94;4987871;28;20056;-79
2023/05/17 01:57:32;;;;;;;4.33;1.90;;;;;;;4.97;100.00;101109.94;4972719;28;20126;-79
2023/05/17 02:00:05;;;;;;;5.53;2.43;;;;;;;5.05;100.00;101116.13;4998500;28;20551;-79
2023/05/17 02:02:31;;;;;;;6.83;2.57;;;;;;;5.02;100.00;101110.81;5006842;28;20073;-79
2023/05/17 02:04:58;;;;;;;5.17;2.30;;;;;;;5.07;100.00;101109.16;4970890;28;20049;-78
2023/05/17 02:07:25;;;;;;;4.80;2.57;;;;;;;5.12;100.00;101101.31;5003387;28;20096;-79
2023/05/17 02:09:52;;;;;;;4.67;2.57;;;;;;;5.18;100.00;101105.75;5007863;28;20046;-79
2023/05/17 02:12:18;;;;;;;5.13;2.83;;;;;;;5.17;100.00;101101.38;4991614;28;20128;-79
2023/05/17 02:14:45;;;;;;;7.43;2.70;;;;;;;5.34;100.00;101110.25;5004752;28;20077;-80
2023/05/17 02:17:12;;;;;;;5.30;2.10;;;;;;;5.28;100.00;101104.94;5003454;28;20133;-80
2023/05/17 02:19:39;;;;;;;6.00;2.50;;;;;;;5.33;100.00;101111.09;4988774;28;20062;-78
2023/05/17 02:22:05;;;;;;;6.47;3.07;;;;;;;5.48;100.00;101112.97;5002871;28;20129;-80
2023/05/17 02:24:32;;;;;;;8.47;3.47;;;;;;;5.56;100.00;101113.91;4968605;28;20755;-79
2023/05/17 02:26:59;;;;;;;6.37;2.83;;;;;;;5.60;100.00;101103.44;4990379;28;20434;-80
2023/05/17 02:29:26;;;;;;;5.93;2.90;;;;;;;5.61;100.00;101109.56;4975367;28;20095;-81
2023/05/17 02:31:53;;;;;;;7.77;2.87;;;;;;;5.59;100.00;101114.81;4987982;28;20128;-78
2023/05/17 02:34:19;;;;;;;6.53;3.10;;;;;;;5.64;100.00;101113.09;4989982;28;20069;-79
2023/05/17 02:36:47;;;;;;;9.43;3.50;;;;;;;5.61;100.00;101117.44;4991442;28;20042;-80
2023/05/17 02:39:14;;;;;;;5.87;3.43;;;;;;;5.57;100.00;101119.16;4992187;28;20061;-81
2023/05/17 02:41:40;;;;;;;6.87;2.70;;;;;;;5.63;100.00;101118.31;4991708;28;20190;-80
2023/05/17 02:44:07;;;;;;;8.60;3.23;;;;;;;5.66;100.00;101115.72;4991693;28;20124;-79
2023/05/17 02:46:35;;;;;;;7.53;3.23;;;;;;;5.73;100.00;101119.28;5000255;28;20100;-79
2023/05/17 02:49:04;;;;;;;8.83;3.30;;;;;;;5.78;100.00;101113.16;4996815;28;20141;-78
2023/05/17 02:51:30;;;;;;;12.20;3.33;;;;;;;5.90;100.00;101115.00;4995766;28;20038;-80
2023/05/17 02:53:57;;;;;;;7.57;2.87;;;;;;;5.93;100.00;101113.31;5005618;28;20046;-79
2023/05/17 02:56:24;;;;;;;8.27;3.67;;;;;;;5.95;100.00;101121.16;4995810;28;20466;-79
2023/05/17 02:58:51;;;;;;;7.37;3.37;;;;;;;6.06;100.00;101113.38;4985763;28;20129;-77
2023/05/17 03:01:17;;;;;;;9.83;3.10;;;;;;;6.13;100.00;101123.00;5002472;28;20037;-79
2023/05/17 03:03:44;;;;;;;8.37;2.80;;;;;;;6.08;100.00;101119.50;5002204;28;20522;-80
2023/05/17 03:06:11;;;;;;;11.87;3.60;;;;;;;6.13;100.00;101115.13;4991151;28;20107;-80
2023/05/17 03:08:39;;;;;;;11.47;3.70;;;;;;;6.11;100.00;101116.88;4989118;28;20069;-80
2023/05/17 03:11:05;;;;;;;10.97;4.30;;;;;;;6.03;100.00;101121.22;4993019;28;20088;-78
2023/05/17 03:13:32;;;;;;;7.27;3.10;;;;;;;5.97;100.00;101129.03;4978687;28;20069;-80
2023/05/17 03:15:59;;;;;;;6.50;3.43;;;;;;;5.99;100.00;101127.31;4991540;28;20042;-80
2023/05/17 03:18:26;;;;;;;7.83;3.57;;;;;;;6.00;100.00;101134.31;4974421;28;20058;-80
2023/05/17 03:20:56;;;;;;;8.57;3.93;;;;;;;5.96;100.00;101141.28;5009908;28;20053;-80
2023/05/17 03:23:22;;;;;;;5.87;3.00;;;;;;;5.86;100.00;101135.06;5009573;28;20408;-81
2023/05/17 03:25:49;;;;;;;7.10;3.83;;;;;;;5.92;100.00;101137.78;4992646;28;20118;-79
2023/05/17 03:28:16;;;;;;;9.23;3.37;;;;;;;5.85;100.00;101141.19;4990718;28;20052;-79
2023/05/17 03:30:43;;;;;;;14.33;3.73;;;;;;;5.84;100.00;101143.81;4995211;28;20038;-79
2023/05/17 03:33:09;;;;;;;6.87;3.20;;;;;;;5.82;100.00;101143.81;4985295;28;20705;-80
2023/05/17 03:35:36;;;;;;;6.17;3.23;;;;;;;5.74;100.00;101147.25;5008716;28;20042;-80
2023/05/17 03:38:03;;;;;;;7.70;2.90;;;;;;;5.68;100.00;101155.94;4969128;28;20046;-80
2023/05/17 03:40:29;;;;;;;8.93;4.37;;;;;;;5.71;100.00;101147.19;4973320;28;20042;-80
2023/05/17 03:42:56;;;;;;;5.63;3.57;;;;;;;5.62;100.00;101156.75;4993631;28;20049;-80
2023/05/17 03:45:23;;;;;;;10.03;3.57;;;;;;;5.61;100.00;101157.63;4986565;28;20042;-80
2023/05/17 03:47:49;;;;;;;11.73;3.53;;;;;;;5.67;100.00;101153.31;4998011;28;20644;-80
2023/05/17 03:50:16;;;;;;;10.30;4.00;;;;;;;5.62;100.00;101159.38;4974236;28;20041;-79
2023/05/17 03:52:44;;;;;;;8.20;3.83;;;;;;;5.57;100.00;101166.34;4993259;28;20041;-80
2023/05/17 03:55:11;;;;;;;11.73;4.23;;;;;;;5.68;100.00;101176.03;4986896;28;20081;-80
2023/05/17 03:57:41;;;;;;;9.03;3.40;;;;;;;5.65;100.00;101172.53;4990786;28;20042;-80
2023/05/17 04:00:10;;;;;;;9.47;3.20;;;;;;;5.71;100.00;101162.94;5011591;28;20045;-80
2023/05/17 04:02:37;;;;;;;8.70;4.53;;;;;;;5.64;100.00;101169.91;4979233;28;20037;-80
2023/05/17 04:05:04;;;;;;;12.77;4.20;;;;;;;5.65;100.00;101172.53;5011619;28;21154;-79
2023/05/17 04:07:31;;;;;;;10.13;3.60;;;;;;;5.75;100.00;101183.06;5010823;28;20077;-79
2023/05/17 04:09:58;;;;;;;11.37;5.30;;;;;;;5.78;100.00;101181.34;4993022;28;20052;-80
2023/05/17 04:12:27;;;;;;;9.50;4.03;;;;;;;5.78;100.00;101185.72;5013585;28;20066;-79
2023/05/17 04:14:54;;;;;;;9.10;3.37;;;;;;;5.84;100.00;101180.50;4985229;28;20046;-80
2023/05/17 04:17:21;;;;;;;9.37;4.47;;;;;;;5.87;100.00;101175.28;4980950;28;20053;-80
2023/05/17 04:19:47;;;;;;;11.40;4.40;;;;;;;5.98;100.00;101175.41;4988277;28;20072;-81
2023/05/17 04:22:14;;;;;;;11.03;4.50;;;;;;;6.00;100.00;101176.28;4998083;28;20045;-80
2023/05/17 04:24:41;;;;;;;13.40;4.80;;;;;;;6.16;100.00;101178.16;5019963;28;20037;-79
2023/05/17 04:27:08;;;;;;;16.37;4.97;;;;;;;6.29;100.00;101184.31;5007851;28;20503;-80
2023/05/17 04:29:35;;;;;;;18.17;6.30;;;;;;;6.16;100.00;101192.13;4997360;28;20491;-81
2023/05/17 04:32:01;;;;;;;11.03;4.30;;;;;;;6.27;100.00;101189.56;5007089;28;20048;-80
2023/05/17 04:34:30;;;;;;;8.33;4.10;;;;;;;6.34;100.00;101193.09;5000581;28;20471;-80
2023/05/17 04:36:57;;;;;;;8.60;4.67;;;;;;;6.39;100.00;101194.91;4976643;28;20053;-80
2023/05/17 04:39:24;;;;;;;10.03;4.43;;;;;;;6.53;100.00;101194.94;5015581;28;20125;-80
2023/05/17 04:41:51;;;;;;;10.73;5.00;;;;;;;6.64;100.00;101195.88;4993426;28;20068;-81
2023/05/17 04:44:17;;;;;;;10.87;4.27;;;;;;;6.62;100.00;101200.22;4977113;28;20583;-80
2023/05/17 04:46:44;;;;;;;12.07;4.33;;;;;;;6.76;100.00;101208.16;5008062;28;20080;-80
2023/05/17 04:49:11;;;;;;;19.07;5.57;;;;;;;6.80;100.00;101207.28;4984039;28;20061;-80
2023/05/17 04:56:24;;;;;;;7.97;3.90;;;;;;;6.90;100.00;101234.50;5035644;28;20068;-80
2023/05/17 05:07:50;;;;;;;12.50;4.80;;;;;;;7.59;100.00;101240.78;4994225;28;20080;-80
2023/05/17 05:11:34;;;;;;;10.50;4.27;;;;;;;7.93;100.00;101246.06;5000793;28;20085;-82
2023/05/17 05:15:20;;;;;;;6.17;3.80;;;;;;;8.23;100.00;101248.66;4992773;28;20102;-82
2023/05/17 05:18:19;;;;;;;12.90;4.05;;;;;;;8.41;100.00;101256.56;4940105;28;20205;-81
2023/05/17 05:21:57;;;;;;;9.33;4.13;;;;;;;8.88;100.00;101255.53;4982496;28;20047;-82
2023/05/17 05:25:18;;;;;;;13.10;4.37;;;;;;;8.96;100.00;101266.03;5010354;28;20077;-80
2023/05/17 05:28:00;;;;;;;9.63;4.30;;;;;;;9.09;100.00;101262.47;4994529;28;20132;-78
2023/05/17 05:30:27;;;;;;;7.80;3.80;;;;;;;9.40;100.00;101263.19;4995032;28;20625;-77
2023/05/17 05:32:54;;;;;;;11.80;3.80;;;;;;;10.09;96.63;101258.28;5004756;28;20483;-79
2023/05/17 05:35:27;;;;;;;9.45;3.05;;;;;;;10.40;88.90;101268.56;4998053;28;20053;-79
2023/05/17 05:38:19;;;;;;;;;;;;;;;10.37;90.18;101273.91;4988310;28;20046;-80
2023/05/17 05:40:50;;;;;;;8.90;3.10;;;;;;;10.54;84.78;101284.28;5023804;28;19989;-81
2023/05/17 05:43:19;;;;;;;9.63;3.70;;;;;;;10.51;84.09;101287.84;4994123;28;20065;-79
2023/05/17 05:46:00;;;;;;;7.72;3.42;;;;;;;10.42;84.08;101283.53;5026519;28;20045;-80
2023/05/17 05:49:35;;;;;;;9.30;3.00;;;;;;;10.04;83.90;101291.75;4999166;28;20053;-80
2023/05/17 05:52:47;;;;;;;9.00;4.03;;;;;;;10.02;85.35;101298.81;5012340;28;20122;-81
2023/05/17 05:55:31;;;;;;;9.80;2.95;;;;;;;10.58;83.41;101299.22;5023917;28;20451;-80
2023/05/17 05:58:19;;;;;;;10.07;3.30;;;;;;;11.32;76.23;101283.34;5024092;28;20121;-81
2023/05/17 06:01:47;;;;;;;8.55;2.70;;;;;;;11.31;71.70;101305.41;5014438;28;20058;-78
2023/05/17 06:05:10;;;;;;;8.07;3.45;;;;;;;10.93;71.75;101318.22;5022097;28;20150;-79
2023/05/17 06:07:41;;;;;;;9.63;2.72;;;;;;;11.24;73.10;101304.59;4999418;28;20534;-78
2023/05/17 06:10:10;;;;;;;8.07;3.55;;;;;;;11.34;69.66;101302.72;5021378;28;20052;-79
2023/05/17 06:12:39;;;;;;;9.15;2.90;;;;;;;11.94;70.47;101308.94;5002016;28;20569;-80
2023/05/17 06:15:07;;;;;;;9.63;2.95;;;;;;;11.98;66.88;101313.28;4973537;28;20343;-80
2023/05/17 06:17:33;;;;;;;6.38;2.83;;;;;;;11.80;65.91;101319.75;4999493;28;20125;-81
2023/05/17 06:20:00;;;;;;;10.85;2.78;;;;;;;11.59;62.30;101330.59;5000576;28;20280;-80
2023/05/17 06:22:27;;;;;;;8.80;2.38;;;;;;;11.70;64.95;101317.22;4993479;28;20045;-80
2023/05/17 06:24:54;;;;;;;7.28;2.30;;;;;;;12.11;65.71;101320.16;4989290;28;20092;-80
2023/05/17 06:27:21;;;;;;;8.15;2.72;;;;;;;12.38;63.45;101324.09;5008047;28;20065;-80
2023/05/17 06:29:47;;;;;;;6.88;2.90;;;;;;;12.06;57.75;101334.34;4985952;28;20387;-80
2023/05/17 06:32:14;;;;;;;6.28;3.45;;;;;;;11.98;60.72;101333.59;4989007;28;20077;-80
2023/05/17 06:34:41;;;;;;;8.07;2.67;;;;;;;12.04;58.05;101338.81;4989277;28;20045;-80
2023/05/17 06:37:07;;;;;;;10.00;2.30;;;;;;;12.27;62.86;101347.22;5005266;28;20049;-80
2023/05/17 06:39:34;;;;;;;9.20;2.85;;;;;;;12.64;65.02;101351.91;4982171;28;20049;-80
2023/05/17 06:42:01;;;;;;;8.23;2.92;;;;;;;12.59;61.37;101356.41;4989127;28;20038;-81
2023/05/17 06:44:27;;;;;;;7.50;2.55;;;;;;;12.29;59.51;101355.19;4988589;28;20087;-80
2023/05/17 06:46:55;;;;;;;10.77;3.00;;;;;;;12.62;63.38;101348.44;4975309;28;20517;-80
2023/05/17 06:49:22;;;;;;;9.70;2.92;;;;;;;12.90;60.34;101351.44;4985882;28;20054;-79
2023/05/17 06:51:48;;;;;;;7.82;2.40;;;;;;;13.05;58.74;101350.28;4988329;28;20042;-80
2023/05/17 06:54:15;;;;;;;8.57;3.38;;;;;;;12.73;59.60;101366.78;4971192;28;20053;-80
2023/05/17 06:56:42;;;;;;;6.40;2.58;;;;;;;12.63;60.12;101361.66;4989465;28;20061;-81
2023/05/17 06:59:08;;;;;;;6.45;2.80;;;;;;;12.54;59.45;101375.06;4992719;28;20056;-80
2023/05/17 07:01:35;;;;;;;7.05;2.58;;;;;;;12.30;59.58;101373.69;5007836;28;20033;-81
2023/05/17 07:04:02;;;;;;;10.55;3.08;;;;;;;12.57;61.81;101369.69;4991818;28;20069;-82
2023/05/17 07:06:29;;;;;;;6.72;2.15;;;;;;;12.94;57.98;101369.03;5010306;28;20042;-81
2023/05/17 07:08:56;;;;;;;9.02;2.40;;;;;;;12.77;54.86;101382.59;4989168;28;20081;-80
2023/05/17 07:11:23;;;;;;;6.93;2.78;;;;;;;12.61;56.99;101375.81;4996309;28;20049;-81
2023/05/17 07:13:50;;;;;;;8.10;2.47;;;;;;;12.64;57.19;101367.81;5007280;28;20396;-80
2023/05/17 07:16:19;;;;;;;7.32;2.65;;;;;;;13.02;55.95;101374.19;5005576;28;20039;-80
2023/05/17 07:18:46;;;;;;;5.40;2.10;;;;;;;13.13;53.87;101369.56;4981215;28;20049;-78
2023/05/17 07:21:13;;;;;;;6.82;2.10;;;;;;;13.40;51.02;101361.06;5000344;28;20487;-80
2023/05/17 07:23:40;;;;;;;7.50;2.47;;;;;;;13.55;51.07;101366.97;4993706;28;20043;-79
2023/05/17 07:26:06;;;;;;;5.43;2.10;;;;;;;13.53;50.41;101365.19;5016851;28;20044;-78
2023/05/17 07:28:33;;;;;;;7.90;2.08;;;;;;;13.87;50.53;101372.41;5009527;28;20048;-81
2023/05/17 07:31:00;;;;;;;5.72;2.20;;;;;;;13.89;51.75;101383.91;5000633;28;20049;-78
2023/05/17 07:33:27;;;;;;;5.60;2.17;;;;;;;14.02;51.67;101371.19;5001847;28;20038;-80
2023/05/17 07:35:53;;;;;;;6.57;2.15;;;;;;;13.90;48.33;101383.00;5001077;28;20038;-80
2023/05/17 07:38:20;;;;;;;4.80;2.20;;;;;;;13.83;49.06;101388.47;4972162;28;20065;-80
2023/05/17 07:40:47;;;;;;;9.05;3.17;;;;;;;14.26;51.39;101383.91;4992280;28;20046;-81
2023/05/17 07:43:14;;;;;;;8.07;2.53;;;;;;;13.70;49.93;101396.69;4978380;28;20046;-80
2023/05/17 07:45:42;;;;;;;7.30;2.30;;;;;;;13.66;51.08;101400.34;5003535;28;20125;-80
2023/05/17 07:48:09;;;;;;;4.93;1.80;;;;;;;14.10;48.23;101401.13;4998108;28;20038;-80
2023/05/17 07:50:36;;;;;;;6.43;2.20;;;;;;;14.23;48.69;101405.25;5012888;28;20522;-79
2023/05/17 07:53:02;;;;;;;6.35;2.63;;;;;;;14.33;48.58;101403.25;5009777;28;20093;-78
2023/05/17 07:55:29;;;;;;;5.95;2.47;;;;;;;13.94;48.16;101420.97;4989708;28;20153;-79
2023/05/17 07:57:56;;;;;;;7.82;2.30;;;;;;;14.03;48.79;101410.13;4993943;28;20500;-80
2023/05/17 08:00:23;;;;;;;6.63;2.47;;;;;;;13.61;45.22;101415.47;5008661;28;20101;-80
2023/05/17 08:02:50;;;;;;;3.67;1.83;;;;;;;13.81;45.20;101420.38;5013547;28;20389;-79
2023/05/17 08:05:17;;;;;;;8.05;2.55;;;;;;;14.09;46.94;101437.44;5011871;28;20077;-79
2023/05/17 08:07:43;;;;;;;6.50;2.20;;;;;;;14.13;43.95;101421.47;4995528;28;20096;-80
2023/05/17 08:10:10;;;;;;;9.30;2.63;;;;;;;14.48;47.55;101426.84;5002024;28;20042;-79
2023/05/17 08:12:37;;;;;;;6.85;2.33;;;;;;;14.42;46.95;101437.59;4981649;28;20486;-80
2023/05/17 08:15:04;;;;;;;7.18;2.90;;;;;;;14.52;45.64;101435.59;4968846;28;20050;-80
2023/05/17 08:17:31;;;;;;;8.90;2.80;;;;;;;14.22;48.25;101439.84;5005284;28;20505;-81
2023/05/17 08:19:58;;;;;;;8.95;2.40;;;;;;;13.78;46.80;101439.91;4986303;28;20045;-79
2023/05/17 08:22:25;;;;;;;10.25;2.30;;;;;;;14.16;48.12;101427.56;5016645;28;20410;-79
2023/05/17 08:24:51;;;;;;;7.28;2.10;;;;;;;14.39;47.01;101453.63;5004965;28;20053;-79
2023/05/17 08:27:18;;;;;;;6.88;2.08;;;;;;;14.43;44.52;101439.31;5010489;28;20056;-80
2023/05/17 08:29:45;;;;;;;3.88;1.67;;;;;;;14.21;45.27;101451.34;5012182;28;20546;-79
2023/05/17 08:32:13;;;;;;;7.72;2.75;;;;;;;14.47;44.20;101448.16;4995933;28;20709;-81
2023/05/17 08:34:40;;;;;;;5.78;2.22;;;;;;;14.41;48.04;101453.56;5012241;28;20066;-79
2023/05/17 08:37:07;;;;;;;8.57;2.30;;;;;;;13.74;46.44;101458.59;5001852;28;20085;-80
2023/05/17 08:39:33;;;;;;;7.25;2.10;;;;;;;14.31;46.14;101452.91;4990151;28;20076;-82
2023/05/17 08:42:01;;;;;;;6.50;2.67;;;;;;;14.47;47.20;101443.72;4985840;28;20035;-83
2023/05/17 08:44:28;;;;;;;5.40;2.33;;;;;;;14.66;46.98;101448.56;4999447;28;20050;-81
2023/05/17 08:46:55;;;;;;;6.93;2.33;;;;;;;14.77;47.62;101447.38;5009673;28;20134;-80
2023/05/17 08:49:24;;;;;;;6.68;2.22;;;;;;;14.14;42.63;101448.00;4985374;28;20125;-80
2023/05/17 08:51:53;;;;;;;11.48;2.30;;;;;;;14.36;45.30;101448.34;5018536;28;20132;-81
2023/05/17 08:54:19;;;;;;;6.95;2.10;;;;;;;14.63;43.40;101444.22;4991295;28;20142;-79
2023/05/17 08:56:51;;;;;;;10.18;2.55;;;;;;;14.64;43.48;101446.84;4991130;28;20046;-79
2023/05/17 08:59:18;;;;;;;6.03;2.35;;;;;;;15.07;44.29;101451.06;4977428;28;20471;-79
2023/05/17 09:01:48;;;;;;;6.45;2.60;;;;;;;15.33;43.85;101445.03;4985850;28;20061;-79
2023/05/17 09:04:15;;;;;;;6.47;2.30;;;;;;;15.08;42.49;101451.91;5012718;28;20522;-79
2023/05/17 09:06:43;;;;;;;7.38;2.42;;;;;;;14.71;40.97;101451.97;5012317;28;20132;-78
2023/05/17 09:09:10;;;;;;;7.07;2.78;;;;;;;14.58;41.70;101452.28;4996670;28;20049;-79
2023/05/17 09:11:37;;;;;;;6.43;2.25;;;;;;;15.17;42.74;101443.69;5012597;28;20037;-79
2023/05/17 09:14:06;;;;;;;6.75;2.20;;;;;;;15.67;42.29;101468.94;5004876;28;20060;-79
2023/05/17 09:16:35;;;;;;;4.78;2.22;;;;;;;15.37;42.14;101462.63;5005378;28;20054;-79
2023/05/17 09:19:03;;;;;;;5.05;2.05;;;;;;;15.94;42.46;101471.72;4995575;28;20068;-80
2023/05/17 09:21:31;;;;;;;8.75;3.25;;;;;;;16.12;41.18;101455.16;4987634;28;20046;-80
2023/05/17 09:24:00;;;;;;;7.85;2.15;;;;;;;16.18;39.98;101457.66;5011183;28;20097;-79
2023/05/17 09:26:40;;;;;;;6.40;2.42;;;;;;;15.30;40.16;101453.09;5008207;28;20046;-79
2023/05/17 09:29:11;;;;;;;4.72;2.08;;;;;;;15.34;41.64;101449.44;4994539;28;20474;-79
2023/05/17 09:31:39;;;;;;;6.75;2.22;;;;;;;15.33;40.77;101461.00;4995749;28;20041;-80
2023/05/17 09:34:06;;;;;;;8.48;2.63;;;;;;;15.17;40.84;101449.00;4995443;28;20411;-79
2023/05/17 09:36:35;;;;;;;8.38;2.45;;;;;;;15.49;41.48;101466.78;4989387;28;20042;-78
2023/05/17 09:39:05;;;;;;;5.63;2.00;;;;;;;15.55;40.21;101458.59;5029911;28;20057;-80
2023/05/17 09:41:32;;;;;;;6.57;2.40;;;;;;;15.39;39.05;101452.84;4981694;28;20522;-81
2023/05/17 09:44:00;;;;;;;5.03;2.63;;;;;;;15.44;42.30;101455.38;5009748;28;20129;-82
2023/05/17 09:46:27;;;;;;;6.00;2.55;;;;;;;15.57;41.05;101463.91;4999077;28;20110;-82
2023/05/17 09:48:55;;;;;;;7.22;2.35;;;;;;;15.16;40.14;101453.47;4991596;28;20065;-82
2023/05/17 09:51:33;;;;;;;6.20;2.38;;;;;;;15.23;40.82;101459.50;5008827;28;20044;-83
2023/05/17 09:54:00;;;;;;;9.50;2.45;;;;;;;15.46;41.85;101454.41;4993181;28;20112;-82
2023/05/17 09:56:30;;;;;;;7.93;2.90;;;;;;;15.71;41.63;101459.94;4987303;28;20119;-82
2023/05/17 09:59:00;;;;;;;7.65;2.75;;;;;;;15.67;39.81;101462.75;4976917;28;20581;-82
2023/05/17 10:01:28;;;;;;;4.13;1.92;;;;;;;16.11;41.72;101456.09;4999529;28;20119;-82
2023/05/17 10:03:59;;;;;;;7.97;2.15;;;;;;;16.08;41.26;101452.66;5021924;28;20511;-82
2023/05/17 10:06:27;;;;;;;4.60;1.80;;;;;;;16.32;40.52;101462.56;5013002;28;20046;-82
2023/05/17 10:08:59;;;;;;;7.55;1.98;;;;;;;15.97;39.84;101468.94;5012502;28;20076;-82
2023/05/17 10:11:32;;;;;;;5.00;2.10;;;;;;;15.93;40.21;101456.66;5007128;28;20128;-81
2023/05/17 10:14:22;;;;;;;5.32;2.15;;;;;;;16.24;39.74;101465.47;4987430;28;20045;-82
2023/05/17 10:16:50;;;;;;;5.57;2.38;;;;;;;15.80;39.63;101457.91;4979512;28;20129;-83
2023/05/17 10:19:19;;;;;;;8.23;1.92;;;;;;;15.71;38.53;101473.25;4989791;28;20053;-82
2023/05/17 10:21:49;;;;;;;8.40;2.28;;;;;;;15.45;38.21;101478.41;5012546;28;20050;-83
2023/05/17 10:24:18;;;;;;;7.05;3.03;;;;;;;15.60;38.87;101482.44;5009334;28;20198;-83
2023/05/17 10:26:48;;;;;;;8.88;2.42;;;;;;;15.74;39.13;101470.53;4992406;28;20045;-82
2023/05/17 10:29:15;;;;;;;4.53;1.80;;;;;;;16.16;38.10;101475.50;4996460;28;20034;-81
2023/05/17 10:31:44;;;;;;;6.97;2.60;;;;;;;16.54;40.40;101465.41;4989723;28;20060;-81
2023/05/17 10:34:11;;;;;;;5.88;2.10;;;;;;;16.32;38.03;101484.75;5009945;28;20066;-81
2023/05/17 10:36:40;;;;;;;6.13;2.88;;;;;;;16.27;36.77;101485.81;4987640;28;20200;-81
2023/05/17 10:39:07;;;;;;;4.45;1.70;;;;;;;15.62;37.40;101478.84;5022448;28;20050;-81
2023/05/17 10:41:34;;;;;;;5.47;2.05;;;;;;;15.34;39.39;101478.72;5005541;28;20050;-83
2023/05/17 10:44:02;;;;;;;4.00;2.25;;;;;;;15.61;38.14;101487.75;4996395;28;20038;-82
2023/05/17 10:46:30;;;;;;;5.95;2.47;;;;;;;15.66;39.69;101477.00;5009492;28;20141;-82
2023/05/17 10:48:59;;;;;;;6.47;2.28;;;;;;;16.05;39.02;101493.59;4990457;28;20048;-82
2023/05/17 10:51:31;;;;;;;7.28;2.42;;;;;;;16.05;37.21;101482.91;4996430;28;20064;-82
2023/05/17 10:54:07;;;;;;;9.20;2.40;;;;;;;16.24;36.21;101496.59;4978452;28;20117;-82
2023/05/17 10:56:34;;;;;;;7.00;2.60;;;;;;;16.10;37.25;101494.34;4987505;28;20049;-83
2023/05/17 10:59:14;;;;;;;4.10;1.88;;;;;;;16.07;38.48;101510.44;4977326;28;20133;-82
2023/05/17 11:02:05;;;;;;;14.27;3.60;;;;;;;16.36;36.86;101506.88;5003178;28;20419;-85
2023/05/17 11:04:49;;;;;;;4.43;1.80;;;;;;;16.85;37.55;101492.88;4998187;28;20052;-82
2023/05/17 11:07:17;;;;;;;6.40;2.55;;;;;;;17.09;35.22;101487.63;4994516;28;20242;-84
2023/05/17 11:09:45;;;;;;;7.72;2.03;;;;;;;17.13;35.02;101486.59;4998490;28;20122;-83
2023/05/17 11:12:13;;;;;;;6.80;2.38;;;;;;;16.55;37.94;101491.16;5005255;28;20112;-83
2023/05/17 11:14:43;;;;;;;7.22;2.47;;;;;;;16.74;38.79;101489.69;4988229;28;20052;-82
2023/05/17 11:17:25;;;;;;;7.65;2.05;;;;;;;17.17;37.86;101485.56;5013185;28;20049;-82
2023/05/17 11:20:08;;;;;;;4.60;1.95;;;;;;;17.01;37.36;101500.38;5000277;28;20113;-82
2023/05/17 11:22:48;;;;;;;5.10;2.33;;;;;;;16.37;37.33;101497.94;5001140;28;20069;-82
2023/05/17 11:25:15;;;;;;;7.85;2.30;;;;;;;16.51;38.12;101511.72;5012452;28;20045;-82
2023/05/17 11:27:44;;;;;;;5.30;1.85;;;;;;;16.80;38.15;101508.13;5002171;28;20326;-83
2023/05/17 11:30:21;;;;;;;8.27;2.05;;;;;;;16.54;35.60;101508.09;4998093;28;20050;-83
2023/05/17 11:32:50;;;;;;;4.38;1.80;;;;;;;16.46;35.63;101507.44;4998190;28;20042;-82
2023/05/17 11:35:21;;;;;;;5.45;2.00;;;;;;;16.17;35.43;101516.34;5014303;28;20056;-82
2023/05/17 11:37:50;;;;;;;6.97;2.10;;;;;;;16.11;37.31;101496.06;4983311;28;20449;-82
2023/05/17 11:40:26;;;;;;;5.07;1.90;;;;;;;16.06;36.59;101516.69;5001093;28;20049;-81
2023/05/17 11:43:09;;;;;;;5.10;2.00;;;;;;;15.92;37.76;101524.19;5003813;28;20106;-82
2023/05/17 11:45:47;;;;;;;5.35;1.90;;;;;;;15.44;37.43;101509.50;4996344;28;20531;-81
2023/05/17 11:48:20;;;;;;;4.68;2.05;;;;;;;15.64;38.79;101527.66;4993196;28;20046;-81
2023/05/17 11:50:48;;;;;;;3.75;1.75;;;;;;;15.87;37.39;101518.13;5012966;28;20069;-80
2023/05/17 11:53:15;;;;;;;4.97;1.85;;;;;;;16.32;37.62;101508.75;5003907;28;20129;-81
2023/05/17 11:55:46;;;;;;;7.82;2.05;;;;;;;16.53;37.20;101501.00;4990401;28;20531;-80